Time;durP1;ratioP1;P1;durP2;ratioP2;P2;SDS_P1;SDS_P2;PMS_P1;PMS_P2;Temp;Humidity;BMP_temperature;BMP_pressure;BME280_temperature;BME280_humidity;BME280_pressure;Samples;Min_cycle;Max_cycle;Signal;HPM_P1;HPM_P2
2023/10/27 00:00:14;;;;;;;12.30;8.00;;;;;;;15.93;69.22;98716.95;105282;1253;64337;-56
2023/10/27 00:02:42;;;;;;;12.40;7.80;;;;;;;15.84;69.26;98720.19;105495;1254;60539;-56
2023/10/27 00:05:09;;;;;;;12.20;7.40;;;;;;;15.80;69.28;98718.28;105461;1253;60388;-58
2023/10/27 00:07:37;;;;;;;11.50;7.60;;;;;;;15.78;69.38;98715.84;105359;1258;63727;-58
2023/10/27 00:10:07;;;;;;;9.90;6.80;;;;;;;15.75;69.47;98719.52;105380;1254;61326;-58
2023/10/27 00:12:34;;;;;;;9.40;6.70;;;;;;;15.74;69.70;98716.30;105557;1254;63740;-58
2023/10/27 00:15:03;;;;;;;9.30;6.20;;;;;;;15.72;69.84;98712.47;105366;1256;60663;-58
2023/10/27 00:17:30;;;;;;;9.90;7.40;;;;;;;15.69;69.97;98712.61;105817;1254;60633;-57
2023/10/27 00:19:58;;;;;;;14.30;7.10;;;;;;;15.65;70.16;98710.27;105447;1253;63632;-60
2023/10/27 00:22:25;;;;;;;8.90;6.60;;;;;;;15.65;70.17;98704.77;105953;1253;61507;-58
2023/10/27 00:24:53;;;;;;;8.30;5.90;;;;;;;15.66;70.08;98713.66;105983;1254;62469;-55
2023/10/27 00:27:21;;;;;;;8.80;6.10;;;;;;;15.66;70.19;98717.04;105983;1257;60559;-58
2023/10/27 00:29:48;;;;;;;10.80;6.20;;;;;;;15.65;70.33;98714.48;105237;1253;60403;-57
2023/10/27 00:32:16;;;;;;;9.90;6.20;;;;;;;15.65;70.53;98720.06;105355;1257;64959;-57
2023/10/27 00:34:44;;;;;;;8.90;6.10;;;;;;;15.60;70.60;98721.66;105384;1257;60415;-57
2023/10/27 00:37:11;;;;;;;9.00;6.30;;;;;;;15.55;70.84;98722.13;105449;1256;62549;-57
2023/10/27 00:39:39;;;;;;;9.40;5.60;;;;;;;15.54;70.67;98716.90;105418;1257;60555;-57
2023/10/27 00:42:07;;;;;;;11.60;5.70;;;;;;;15.55;70.83;98710.41;105590;1254;60588;-56
2023/10/27 00:44:35;;;;;;;10.10;5.30;;;;;;;15.57;70.85;98714.44;105629;1258;64980;-57
2023/10/27 00:47:03;;;;;;;9.40;5.70;;;;;;;15.59;70.84;98715.95;105669;1254;61304;-58
2023/10/27 00:49:31;;;;;;;9.10;6.30;;;;;;;15.61;70.87;98712.69;105738;1254;63807;-58
2023/10/27 00:51:58;;;;;;;8.60;6.00;;;;;;;15.59;70.92;98711.46;105339;1253;60491;-57
2023/10/27 00:54:26;;;;;;;9.40;5.90;;;;;;;15.56;70.95;98709.20;105460;1254;300930;-58
2023/10/27 00:58:10;;;;;;;11.30;6.20;;;;;;;15.34;71.94;98706.09;102205;1296;600998;-60
2023/10/27 01:00:38;;;;;;;9.00;5.20;;;;;;;15.55;71.11;98700.59;104553;1272;59286;-60
2023/10/27 01:03:06;;;;;;;10.90;5.90;;;;;;;15.58;70.96;98706.16;104657;1273;59248;-59
2023/10/27 01:05:34;;;;;;;8.60;5.30;;;;;;;15.62;70.95;98704.23;105527;1267;63342;-59
2023/10/27 01:08:02;;;;;;;8.80;5.60;;;;;;;15.66;70.85;98702.77;104392;1270;61378;-60
2023/10/27 01:10:30;;;;;;;8.70;5.90;;;;;;;15.67;70.84;98702.73;102685;1267;3203709;-59
2023/10/27 01:12:58;;;;;;;13.20;6.20;;;;;;;15.66;70.86;98705.59;104561;1269;60422;-59
2023/10/27 01:15:26;;;;;;;8.60;5.40;;;;;;;15.62;70.72;98707.23;104713;1266;59463;-59
2023/10/27 01:17:53;;;;;;;8.90;5.70;;;;;;;15.62;70.61;98706.41;105246;1263;63361;-60
2023/10/27 01:20:21;;;;;;;9.30;5.60;;;;;;;15.61;70.44;98705.31;104751;1267;61643;-58
2023/10/27 01:22:49;;;;;;;7.20;4.80;;;;;;;15.61;70.48;98708.13;105354;1263;62533;-57
2023/10/27 01:25:17;;;;;;;8.40;5.60;;;;;;;15.61;70.51;98707.56;104807;1264;59704;-57
2023/10/27 01:27:45;;;;;;;8.30;5.40;;;;;;;15.59;70.57;98706.73;104859;1264;59858;-57
2023/10/27 01:30:13;;;;;;;8.10;5.40;;;;;;;15.58;70.71;98709.58;105582;1264;64690;-57
2023/10/27 01:32:43;;;;;;;8.70;4.90;;;;;;;15.53;70.70;98712.79;104815;1266;62598;-57
2023/10/27 01:35:11;;;;;;;8.50;5.50;;;;;;;15.52;70.57;98714.17;104856;1264;63717;-58
2023/10/27 01:37:39;;;;;;;9.30;4.70;;;;;;;15.53;70.31;98715.27;105137;1263;60144;-59
2023/10/27 01:40:07;;;;;;;9.40;5.20;;;;;;;15.54;70.29;98716.94;105115;1258;59691;-58
2023/10/27 01:42:35;;;;;;;8.00;4.80;;;;;;;15.52;70.20;98719.83;105332;1258;64131;-58
2023/10/27 01:45:05;;;;;;;11.40;5.80;;;;;;;15.48;70.23;98723.72;105305;1257;62457;-60
2023/10/27 01:47:33;;;;;;;9.00;5.90;;;;;;;15.42;70.31;98723.44;105436;1261;62463;-57
2023/10/27 01:50:01;;;;;;;11.10;5.50;;;;;;;15.36;70.32;98720.67;105263;1260;59741;-55
2023/10/27 01:52:28;;;;;;;9.10;5.10;;;;;;;15.32;70.27;98724.85;105036;1258;59752;-56
2023/10/27 01:54:57;;;;;;;9.10;5.70;;;;;;;15.32;70.22;98722.07;105519;1257;64224;-57
2023/10/27 01:57:25;;;;;;;10.00;5.20;;;;;;;15.29;70.21;98720.10;106418;1259;60231;-57
2023/10/27 01:59:53;;;;;;;10.10;5.50;;;;;;;15.28;70.37;98723.80;104790;1263;62515;-57
2023/10/27 02:02:21;;;;;;;8.40;5.50;;;;;;;15.24;70.49;98724.84;105120;1263;60162;-57
2023/10/27 02:04:48;;;;;;;8.60;5.60;;;;;;;15.18;70.70;98723.98;104848;1258;59689;-58
2023/10/27 02:07:16;;;;;;;7.90;5.20;;;;;;;15.14;70.80;98727.66;105123;1263;64585;-58
2023/10/27 02:09:44;;;;;;;9.60;5.50;;;;;;;15.13;70.72;98728.23;104891;1263;61345;-58
2023/10/27 02:12:12;;;;;;;7.70;5.00;;;;;;;15.14;70.64;98725.22;105032;1259;63760;-58
2023/10/27 02:14:40;;;;;;;7.90;4.90;;;;;;;15.14;70.90;98720.08;105266;1260;59787;-58
2023/10/27 02:17:07;;;;;;;9.00;5.20;;;;;;;15.16;70.76;98720.21;105100;1263;59551;-58
2023/10/27 02:19:35;;;;;;;11.50;5.80;;;;;;;15.13;70.73;98722.31;105144;1263;64178;-57
2023/10/27 02:22:03;;;;;;;8.90;5.50;;;;;;;15.08;70.78;98723.29;104937;1258;61447;-62
2023/10/27 02:24:30;;;;;;;8.20;4.80;;;;;;;15.02;70.93;98718.45;105464;1257;63679;-57
2023/10/27 02:26:58;;;;;;;7.90;4.70;;;;;;;15.01;70.82;98721.05;105140;1263;59638;-55
2023/10/27 02:29:26;;;;;;;8.30;5.10;;;;;;;15.03;70.85;98723.66;105056;1258;60183;-56
2023/10/27 02:31:55;;;;;;;8.80;4.90;;;;;;;15.05;70.76;98722.34;105103;1257;64181;-56
2023/10/27 02:34:24;;;;;;;9.20;4.80;;;;;;;15.06;70.62;98722.06;105594;1257;61361;-57
2023/10/27 02:36:52;;;;;;;8.80;5.20;;;;;;;15.06;70.79;98720.18;105720;1260;65084;-59
2023/10/27 02:39:19;;;;;;;8.80;6.00;;;;;;;15.03;70.77;98718.34;104980;1262;59769;-56
2023/10/27 02:41:47;;;;;;;7.90;5.40;;;;;;;15.02;70.60;98720.80;105690;1257;59804;-57
2023/10/27 02:44:15;;;;;;;7.80;4.80;;;;;;;15.03;70.39;98722.61;105026;1262;64064;-57
2023/10/27 02:46:43;;;;;;;9.20;4.60;;;;;;;15.04;70.31;98723.10;105342;1257;61383;-57
2023/10/27 02:49:10;;;;;;;8.60;5.30;;;;;;;15.02;70.19;98724.16;105255;1263;62502;-57
2023/10/27 02:51:38;;;;;;;7.80;5.10;;;;;;;14.98;70.20;98729.66;105270;1263;59650;-57
2023/10/27 02:54:06;;;;;;;8.20;5.20;;;;;;;14.92;70.32;98734.62;105336;1257;59525;-58
2023/10/27 02:56:34;;;;;;;9.30;4.70;;;;;;;14.85;70.53;98737.29;105261;1263;62933;-58
2023/10/27 02:59:05;;;;;;;8.40;5.10;;;;;;;14.82;70.51;98736.38;105072;1263;60290;-58
2023/10/27 03:01:33;;;;;;;9.10;5.60;;;;;;;14.81;70.60;98733.27;105019;1263;62499;-57
2023/10/27 03:04:01;;;;;;;8.20;5.40;;;;;;;14.79;70.56;98734.98;105046;1257;59653;-55
2023/10/27 03:06:28;;;;;;;8.80;5.40;;;;;;;14.73;70.56;98731.45;105609;1260;59648;-58
2023/10/27 03:08:56;;;;;;;8.10;5.10;;;;;;;14.67;70.91;98729.59;105597;1257;62857;-58
2023/10/27 03:11:23;;;;;;;9.00;5.00;;;;;;;14.62;71.05;98735.30;105600;1258;61534;-58
2023/10/27 03:13:51;;;;;;;8.20;4.40;;;;;;;14.62;71.02;98738.44;104977;1257;62638;-57
2023/10/27 03:16:19;;;;;;;8.30;5.00;;;;;;;14.64;70.98;98743.15;105165;1258;59759;-58
2023/10/27 03:18:46;;;;;;;9.10;5.40;;;;;;;14.64;70.98;98742.85;105023;1258;59726;-58
2023/10/27 03:21:14;;;;;;;9.70;5.10;;;;;;;14.64;71.06;98740.33;105263;1257;64120;-58
2023/10/27 03:23:42;;;;;;;11.10;5.40;;;;;;;14.64;71.09;98740.41;105152;1257;60175;-57
2023/10/27 03:26:09;;;;;;;10.20;5.60;;;;;;;14.61;71.08;98741.84;105095;1260;63855;-58
2023/10/27 03:28:41;;;;;;;10.50;5.30;;;;;;;14.56;71.06;98738.55;105138;1257;59714;-58
2023/10/27 03:31:12;;;;;;;7.70;5.00;;;;;;;14.54;71.11;98740.13;105232;1258;59573;-58
2023/10/27 03:33:40;;;;;;;9.40;4.50;;;;;;;14.55;71.00;98745.45;105143;1257;62927;-58
2023/10/27 03:36:08;;;;;;;9.00;5.30;;;;;;;14.55;70.97;98745.83;105099;1257;61546;-57
2023/10/27 03:38:37;;;;;;;8.80;5.60;;;;;;;14.52;71.08;98746.23;105275;1260;62540;-57
2023/10/27 03:41:05;;;;;;;8.90;6.00;;;;;;;14.47;71.24;98745.06;105308;1258;59682;-57
2023/10/27 03:43:34;;;;;;;8.50;5.40;;;;;;;14.41;71.34;98735.62;105135;1257;60664;-58
2023/10/27 03:46:02;;;;;;;7.40;5.00;;;;;;;14.38;71.25;98733.11;105151;1257;67163;-58
2023/10/27 03:48:30;;;;;;;9.20;5.70;;;;;;;14.39;71.38;98736.91;106094;1257;60991;-55
2023/10/27 03:50:58;;;;;;;8.30;5.20;;;;;;;14.37;71.19;98740.60;105090;1260;62459;-55
2023/10/27 03:53:25;;;;;;;9.50;5.60;;;;;;;14.35;71.27;98742.69;105102;1257;59823;-57
2023/10/27 03:55:53;;;;;;;10.90;5.60;;;;;;;14.29;71.38;98743.52;105060;1257;59778;-59
2023/10/27 03:58:21;;;;;;;7.70;5.10;;;;;;;14.21;71.46;98739.73;105649;1257;64116;-57
2023/10/27 04:00:56;;;;;;;8.80;6.00;;;;;;;14.13;71.72;98732.04;104877;1257;61558;-58
2023/10/27 04:03:24;;;;;;;9.90;5.70;;;;;;;14.11;71.61;98727.30;108832;1257;64355;-58
2023/10/27 04:05:51;;;;;;;8.80;5.60;;;;;;;14.12;71.60;98722.49;108838;1257;57670;-61
2023/10/27 04:08:19;;;;;;;9.20;5.40;;;;;;;14.13;71.50;98723.21;108872;1259;57759;-58
2023/10/27 04:10:47;;;;;;;9.00;5.70;;;;;;;14.17;71.61;98726.55;108873;1257;64099;-56
2023/10/27 04:13:14;;;;;;;9.40;5.80;;;;;;;14.17;71.49;98724.72;105130;1258;60116;-60
2023/10/27 04:15:44;;;;;;;13.10;6.10;;;;;;;14.16;71.76;98722.30;105058;1257;63684;-58
2023/10/27 04:18:13;;;;;;;9.60;6.00;;;;;;;14.13;71.72;98722.71;105177;1263;59771;-60
2023/10/27 04:20:41;;;;;;;9.50;5.80;;;;;;;14.14;71.67;98729.16;105016;1263;59570;-58
2023/10/27 04:23:09;;;;;;;8.00;5.30;;;;;;;14.13;71.59;98732.20;105550;1257;62846;-60
2023/10/27 04:25:39;;;;;;;10.10;5.80;;;;;;;14.13;71.39;98733.98;105080;1257;61987;-59
2023/10/27 04:28:08;;;;;;;8.60;6.10;;;;;;;14.11;71.52;98733.23;106708;1257;64066;-56
2023/10/27 04:30:38;;;;;;;9.60;6.40;;;;;;;14.05;71.58;98731.09;105342;1260;59720;-61
2023/10/27 04:33:09;;;;;;;9.10;6.10;;;;;;;14.03;71.78;98728.91;107113;1259;59364;-57
2023/10/27 04:35:37;;;;;;;10.80;6.00;;;;;;;14.07;71.63;98731.59;105365;1257;67679;-61
2023/10/27 04:38:06;;;;;;;10.90;6.20;;;;;;;14.12;71.39;98732.55;105044;1258;61372;-59
2023/10/27 04:40:36;;;;;;;9.20;6.00;;;;;;;14.15;71.30;98738.86;105265;1262;62607;-56
2023/10/27 04:43:04;;;;;;;8.40;5.60;;;;;;;14.16;71.17;98737.97;104966;1257;59781;-56
2023/10/27 04:45:33;;;;;;;9.00;5.90;;;;;;;14.14;71.23;98740.80;105307;1257;59606;-59
2023/10/27 04:48:00;;;;;;;9.70;6.30;;;;;;;14.10;71.33;98741.56;106385;1263;64129;-52
2023/10/27 04:50:28;;;;;;;9.20;6.00;;;;;;;14.12;71.03;98742.23;104881;1258;61321;-55
2023/10/27 04:52:56;;;;;;;8.70;5.80;;;;;;;14.14;70.79;98741.48;104805;1259;64333;-57
2023/10/27 04:55:23;;;;;;;7.80;5.60;;;;;;;14.15;70.82;98739.27;104740;1257;59625;-57
2023/10/27 04:57:51;;;;;;;8.80;6.50;;;;;;;14.15;70.87;98742.60;104930;1259;59563;-57
2023/10/27 05:00:18;;;;;;;9.10;5.80;;;;;;;14.15;70.59;98745.36;104869;1258;62822;-57
2023/10/27 05:02:46;;;;;;;13.10;6.10;;;;;;;14.13;70.60;98745.10;104997;1261;60197;-55
2023/10/27 05:05:14;;;;;;;8.40;5.30;;;;;;;14.11;70.34;98746.25;104898;1262;62512;-55
2023/10/27 05:07:41;;;;;;;8.80;5.70;;;;;;;14.13;70.14;98751.08;105777;1259;60530;-57
2023/10/27 05:10:11;;;;;;;11.70;5.90;;;;;;;14.16;69.79;98754.28;104893;1258;60419;-55
2023/10/27 05:12:42;;;;;;;7.50;4.90;;;;;;;14.17;69.46;98760.32;105103;1258;65909;-55
2023/10/27 05:15:10;;;;;;;8.90;6.10;;;;;;;14.14;69.26;98767.80;105363;1262;60329;-55
2023/10/27 05:17:38;;;;;;;8.60;5.60;;;;;;;14.08;69.24;98765.83;104938;1263;63738;-58
2023/10/27 05:20:06;;;;;;;10.40;6.00;;;;;;;14.04;69.16;98768.22;105120;1257;60505;-55
2023/10/27 05:22:34;;;;;;;8.70;5.80;;;;;;;14.01;69.21;98766.34;105339;1257;60423;-59
2023/10/27 05:25:06;;;;;;;8.00;5.50;;;;;;;14.03;69.14;98760.14;105127;1257;67218;-58
2023/10/27 05:27:38;;;;;;;9.80;5.70;;;;;;;14.04;68.91;98761.55;105560;1257;61411;-61
2023/10/27 05:30:10;;;;;;;10.20;6.00;;;;;;;14.03;69.04;98769.56;105381;1257;66325;-62
2023/10/27 05:32:38;;;;;;;10.90;6.80;;;;;;;14.04;69.28;98772.38;105254;1257;60451;-61
2023/10/27 05:35:08;;;;;;;10.00;6.00;;;;;;;14.03;69.58;98771.75;105203;1257;60450;-61
2023/10/27 05:37:37;;;;;;;12.00;5.60;;;;;;;14.02;69.70;98773.77;105212;1255;63610;-61
2023/10/27 05:40:12;;;;;;;8.70;5.90;;;;;;;14.04;69.60;98775.27;105373;1254;70367;-61
2023/10/27 05:42:40;;;;;;;11.20;5.60;;;;;;;14.07;69.82;98771.36;105271;1259;64282;-61
2023/10/27 05:45:08;;;;;;;9.60;6.70;;;;;;;14.12;69.81;98773.29;105387;1254;60535;-60
2023/10/27 05:47:36;;;;;;;8.10;5.40;;;;;;;14.16;70.00;98777.11;105437;1257;60350;-58
2023/10/27 05:50:06;;;;;;;9.40;6.40;;;;;;;14.17;70.21;98783.04;106242;1256;63639;-56
2023/10/27 05:52:34;;;;;;;9.80;6.00;;;;;;;14.20;70.15;98787.14;105615;1254;61880;-54
2023/10/27 05:55:04;;;;;;;10.60;5.50;;;;;;;14.24;70.14;98783.48;105556;1260;64292;-56
2023/10/27 05:57:34;;;;;;;7.80;5.30;;;;;;;14.31;70.09;98778.95;105695;1257;60578;-57
2023/10/27 06:00:04;;;;;;;10.50;5.50;;;;;;;14.38;70.16;98779.19;105398;1259;60367;-53
2023/10/27 06:02:32;;;;;;;10.80;5.30;;;;;;;14.44;70.07;98781.05;105633;1259;63721;-52
2023/10/27 06:05:01;;;;;;;9.60;5.80;;;;;;;14.50;70.23;98779.05;105178;1259;61433;-55
2023/10/27 06:07:29;;;;;;;11.20;5.90;;;;;;;14.57;70.35;98775.49;105243;1254;64846;-57
2023/10/27 06:09:58;;;;;;;9.90;5.10;;;;;;;14.63;70.27;98778.31;105374;1254;60501;-55
2023/10/27 06:12:27;;;;;;;11.40;5.70;;;;;;;14.71;70.07;98781.94;105255;1255;60672;-54
2023/10/27 06:14:57;;;;;;;8.80;5.00;;;;;;;14.80;69.97;98778.77;105841;1257;74034;-60
2023/10/27 06:17:25;;;;;;;8.70;4.80;;;;;;;14.90;69.92;98775.27;105151;1257;62183;-54
2023/10/27 06:19:53;;;;;;;9.50;5.00;;;;;;;14.99;69.80;98781.98;105161;1257;62427;-57
2023/10/27 06:22:42;;;;;;;11.40;5.30;;;;;;;15.04;69.70;98782.68;105245;1256;60316;-58
2023/10/27 06:25:10;;;;;;;8.50;5.70;;;;;;;15.09;69.70;98788.38;107658;1256;60479;-59
2023/10/27 06:27:37;;;;;;;9.50;4.80;;;;;;;15.10;69.21;98794.03;108994;1257;64863;-59
2023/10/27 06:30:06;;;;;;;7.40;4.40;;;;;;;15.15;69.20;98794.68;109033;1254;62105;-58
2023/10/27 06:32:33;;;;;;;7.60;5.00;;;;;;;15.23;69.13;98793.77;109058;1257;64027;-57
2023/10/27 06:35:01;;;;;;;7.20;4.30;;;;;;;15.31;68.88;98794.79;109099;1254;59043;-58
2023/10/27 06:37:28;;;;;;;11.60;5.10;;;;;;;15.34;68.87;98793.11;109045;1254;59109;-57
2023/10/27 06:40:00;;;;;;;8.30;5.40;;;;;;;15.36;68.86;98795.37;109054;1256;65392;-58
2023/10/27 06:42:28;;;;;;;7.80;4.90;;;;;;;15.39;68.76;98798.16;109008;1254;60111;-59
2023/10/27 06:44:56;;;;;;;12.00;5.20;;;;;;;15.48;68.68;98800.02;108960;1254;62453;-57
2023/10/27 06:47:23;;;;;;;7.60;5.20;;;;;;;15.58;68.43;98795.26;108992;1256;58472;-58
2023/10/27 06:49:51;;;;;;;7.80;4.80;;;;;;;15.67;68.30;98799.66;105724;1257;61812;-57
2023/10/27 06:52:19;;;;;;;9.30;5.00;;;;;;;15.74;68.30;98799.71;105031;1259;63768;-57
2023/10/27 06:54:46;;;;;;;7.00;4.60;;;;;;;15.81;68.30;98798.59;105183;1257;61373;-58
2023/10/27 06:57:14;;;;;;;10.20;5.00;;;;;;;15.85;68.18;98801.45;105878;1257;62542;-58
2023/10/27 06:59:42;;;;;;;9.20;5.10;;;;;;;15.90;67.87;98804.02;105180;1256;60482;-59
2023/10/27 07:02:09;;;;;;;6.30;4.20;;;;;;;15.93;67.59;98804.48;105181;1259;60370;-58
2023/10/27 07:04:37;;;;;;;9.60;4.80;;;;;;;15.93;67.40;98801.58;105388;1254;63604;-58
2023/10/27 07:07:05;;;;;;;8.70;5.00;;;;;;;15.93;67.52;98798.45;105420;1256;61347;-58
2023/10/27 07:09:51;;;;;;;7.60;4.80;;;;;;;15.95;67.53;98805.31;106784;1256;64450;-56
2023/10/27 07:12:19;;;;;;;7.20;4.70;;;;;;;15.95;67.56;98810.79;105122;1257;63769;-56
2023/10/27 07:14:46;;;;;;;9.50;4.90;;;;;;;15.97;67.51;98810.39;105149;1254;60527;-57
2023/10/27 07:17:14;;;;;;;6.50;4.60;;;;;;;16.01;67.23;98811.50;105216;1254;64958;-53
2023/10/27 07:19:41;;;;;;;8.40;4.80;;;;;;;16.07;67.42;98813.36;105230;1258;61427;-54
2023/10/27 07:22:10;;;;;;;8.80;4.60;;;;;;;16.12;67.28;98807.22;105252;1260;64247;-58
2023/10/27 07:24:38;;;;;;;13.60;4.90;;;;;;;16.14;67.37;98810.38;105239;1259;60527;-58
2023/10/27 07:27:06;;;;;;;9.10;5.50;;;;;;;16.17;67.31;98818.22;105462;1259;60467;-58
2023/10/27 07:29:33;;;;;;;11.50;5.50;;;;;;;16.17;67.20;98821.91;105604;1257;63719;-58
2023/10/27 07:32:01;;;;;;;7.80;4.70;;;;;;;16.20;67.14;98824.21;105219;1257;61375;-55
2023/10/27 07:34:29;;;;;;;8.00;5.00;;;;;;;16.25;66.85;98825.09;105615;1257;66759;-54
2023/10/27 07:36:57;;;;;;;9.20;5.30;;;;;;;16.29;66.75;98829.06;105757;1260;60425;-60
2023/10/27 07:39:24;;;;;;;9.50;5.70;;;;;;;16.32;66.64;98831.89;105214;1260;60425;-59
2023/10/27 07:41:52;;;;;;;9.30;5.60;;;;;;;16.35;66.74;98836.80;105248;1257;64931;-57
2023/10/27 07:44:20;;;;;;;10.40;5.30;;;;;;;16.40;66.86;98837.77;105137;1254;60606;-56
2023/10/27 07:46:47;;;;;;;9.10;5.30;;;;;;;16.49;66.88;98843.35;105228;1254;64353;-61
2023/10/27 07:49:16;;;;;;;7.30;4.80;;;;;;;16.59;66.69;98844.52;105348;1257;60472;-56
2023/10/27 07:51:44;;;;;;;7.60;5.10;;;;;;;16.66;66.44;98839.89;106204;1254;60376;-60
2023/10/27 07:54:12;;;;;;;12.10;5.30;;;;;;;16.73;66.39;98843.92;105500;1258;65006;-58
2023/10/27 07:56:41;;;;;;;9.70;5.00;;;;;;;16.78;66.23;98848.55;105434;1259;60622;-60
2023/10/27 07:59:09;;;;;;;7.70;4.10;;;;;;;16.84;65.90;98851.71;106140;1256;63790;-57
2023/10/27 08:01:37;;;;;;;8.00;4.80;;;;;;;16.94;65.71;98852.20;105410;1261;60587;-60
2023/10/27 08:04:06;;;;;;;7.80;4.50;;;;;;;17.06;65.42;98852.76;105424;1254;60428;-58
2023/10/27 08:06:34;;;;;;;11.80;5.50;;;;;;;17.14;65.14;98854.52;106304;1257;64994;-60
2023/10/27 08:09:02;;;;;;;11.60;5.10;;;;;;;17.16;64.82;98851.01;105671;1257;61297;-59
2023/10/27 08:11:30;;;;;;;7.80;4.20;;;;;;;17.17;64.71;98844.30;106464;1256;64062;-58
2023/10/27 08:13:57;;;;;;;10.50;5.20;;;;;;;17.24;64.75;98840.91;105170;1259;60533;-59
2023/10/27 08:16:25;;;;;;;8.80;5.20;;;;;;;17.34;64.65;98838.22;105570;1254;60593;-62
2023/10/27 08:18:53;;;;;;;10.00;5.30;;;;;;;17.42;64.25;98837.27;105843;1254;65528;-58
2023/10/27 08:21:21;;;;;;;8.80;5.60;;;;;;;17.45;64.12;98847.55;105219;1259;60429;-61
2023/10/27 08:23:49;;;;;;;10.10;5.40;;;;;;;17.46;63.99;98854.21;105791;1254;63726;-59
2023/10/27 08:26:17;;;;;;;8.90;5.80;;;;;;;17.45;63.97;98860.64;105136;1257;63012;-58
2023/10/27 08:28:44;;;;;;;9.80;5.50;;;;;;;17.48;64.06;98861.53;104957;1260;60609;-58
2023/10/27 08:31:13;;;;;;;10.50;5.40;;;;;;;17.54;63.96;98866.12;104932;1254;65457;-60
2023/10/27 08:33:59;;;;;;;10.40;5.20;;;;;;;17.57;63.70;98868.00;108153;1254;61319;-61
2023/10/27 08:36:27;;;;;;;9.60;5.20;;;;;;;17.55;63.83;98870.14;107997;1259;63771;-62
2023/10/27 08:38:55;;;;;;;12.30;5.70;;;;;;;17.56;63.78;98874.17;105197;1259;61766;-56
2023/10/27 08:41:24;;;;;;;7.70;5.30;;;;;;;17.55;63.88;98874.46;105390;1257;60724;-58
2023/10/27 08:43:52;;;;;;;7.90;5.10;;;;;;;17.61;63.91;98876.80;109003;1254;65014;-59
2023/10/27 08:46:20;;;;;;;8.70;5.00;;;;;;;17.71;63.66;98878.91;107543;1257;60294;-55
2023/10/27 08:48:48;;;;;;;8.30;5.70;;;;;;;17.77;63.62;98882.02;108892;1257;62519;-55
2023/10/27 08:51:16;;;;;;;9.50;5.90;;;;;;;17.79;63.21;98882.75;109055;1257;58498;-56
2023/10/27 08:53:44;;;;;;;8.20;5.10;;;;;;;17.82;63.38;98885.16;108967;1254;58398;-56
2023/10/27 08:56:12;;;;;;;8.00;5.30;;;;;;;17.91;63.13;98884.97;109072;1254;67624;-55
2023/10/27 08:58:40;;;;;;;8.20;5.20;;;;;;;18.03;62.33;98882.83;109059;1254;61503;-53
2023/10/27 09:01:08;;;;;;;10.00;4.80;;;;;;;18.15;62.45;98881.85;108932;1254;63837;-53
2023/10/27 09:03:35;;;;;;;7.20;4.80;;;;;;;18.25;62.31;98882.44;108991;1256;58608;-57
2023/10/27 09:06:03;;;;;;;8.70;5.50;;;;;;;18.30;61.66;98870.75;109029;1254;58720;-55
2023/10/27 09:08:31;;;;;;;11.20;5.10;;;;;;;18.31;61.15;98864.58;108878;1254;72950;-54
2023/10/27 09:10:58;;;;;;;9.70;4.70;;;;;;;18.30;60.55;98869.04;109009;1257;61968;-53
2023/10/27 09:13:25;;;;;;;7.20;4.10;;;;;;;18.27;60.21;98871.17;108868;1257;62549;-53
2023/10/27 09:15:53;;;;;;;6.10;4.00;;;;;;;18.28;59.43;98875.31;109049;1254;58501;-55
2023/10/27 09:18:36;;;;;;;9.80;4.70;;;;;;;18.28;59.02;98879.89;109066;1256;58066;-56
2023/10/27 09:21:04;;;;;;;7.20;4.20;;;;;;;18.23;59.27;98870.83;107048;1254;63948;-56
2023/10/27 09:23:43;;;;;;;9.00;4.50;;;;;;;18.21;59.56;98871.61;108953;1254;71391;-57
2023/10/27 09:26:11;;;;;;;7.00;4.70;;;;;;;18.24;60.02;98869.35;105850;1260;63695;-50
2023/10/27 09:28:39;;;;;;;11.90;4.60;;;;;;;18.28;60.10;98869.79;104866;1257;62734;-50
2023/10/27 09:31:07;;;;;;;8.50;5.20;;;;;;;18.32;60.06;98868.33;109069;1254;58182;-57
2023/10/27 09:33:35;;;;;;;7.40;4.60;;;;;;;18.41;59.89;98866.09;108933;1254;63736;-54
2023/10/27 09:36:04;;;;;;;8.20;5.50;;;;;;;18.48;59.80;98854.67;109101;1254;60401;-55
2023/10/27 09:38:31;;;;;;;9.50;5.30;;;;;;;18.54;60.08;98853.25;107144;1256;62557;-55
2023/10/27 09:40:59;;;;;;;10.00;5.70;;;;;;;18.60;60.03;98840.59;105143;1259;61705;-56
2023/10/27 09:43:27;;;;;;;7.30;5.00;;;;;;;18.64;60.00;98841.44;105618;1255;60642;-55
2023/10/27 09:45:57;;;;;;;8.20;5.80;;;;;;;18.68;59.52;98846.91;105182;1260;66867;-57
2023/10/27 09:48:29;;;;;;;9.10;5.20;;;;;;;18.68;59.11;98842.48;105215;1259;60497;-56
2023/10/27 09:51:04;;;;;;;8.50;5.20;;;;;;;18.67;58.99;98844.01;108979;1254;62728;-59
2023/10/27 09:53:32;;;;;;;8.00;4.80;;;;;;;18.73;58.91;98839.84;109126;1254;58633;-56
2023/10/27 09:56:01;;;;;;;9.00;5.00;;;;;;;18.82;59.03;98837.95;109055;1256;58541;-55
2023/10/27 09:58:34;;;;;;;7.80;4.80;;;;;;;18.89;58.71;98838.42;109163;1254;67195;-54
2023/10/27 10:01:02;;;;;;;6.80;4.20;;;;;;;18.95;58.08;98837.67;108964;1256;62034;-63
2023/10/27 10:03:30;;;;;;;9.10;4.20;;;;;;;19.03;57.39;98834.75;108982;1257;64893;-57
2023/10/27 10:06:12;;;;;;;8.30;5.00;;;;;;;19.10;56.40;98836.84;105492;1257;60560;-58
2023/10/27 10:08:42;;;;;;;8.00;4.10;;;;;;;19.12;55.37;98821.77;105262;1257;61096;-60
2023/10/27 10:11:11;;;;;;;6.60;3.80;;;;;;;19.15;55.23;98822.98;105177;1254;65007;-57
2023/10/27 10:13:38;;;;;;;7.50;4.40;;;;;;;19.19;55.45;98818.08;107136;1254;60575;-58
2023/10/27 10:16:07;;;;;;;6.50;3.80;;;;;;;19.26;55.33;98816.86;105418;1254;63849;-58
2023/10/27 10:18:39;;;;;;;6.90;3.90;;;;;;;19.31;53.87;98810.21;105189;1257;60578;-58
2023/10/27 10:21:07;;;;;;;6.30;3.70;;;;;;;19.29;53.48;98810.12;105421;1259;60615;-57
2023/10/27 10:23:37;;;;;;;11.20;3.70;;;;;;;19.26;53.07;98805.95;105018;1254;63841;-58
2023/10/27 10:26:05;;;;;;;5.70;3.40;;;;;;;19.23;52.81;98806.06;105156;1254;60569;-59
2023/10/27 10:28:33;;;;;;;6.10;3.70;;;;;;;19.26;53.18;98801.36;105492;1257;63757;-59
2023/10/27 10:31:10;;;;;;;11.40;4.30;;;;;;;19.30;53.42;98793.85;105657;1257;60318;-56
2023/10/27 10:33:38;;;;;;;7.20;3.90;;;;;;;19.37;53.38;98797.40;105063;1254;60882;-60
2023/10/27 10:36:18;;;;;;;7.30;4.20;;;;;;;19.47;53.12;98795.14;107057;1259;65714;-58
2023/10/27 10:38:55;;;;;;;7.20;3.80;;;;;;;19.58;53.26;98797.87;108208;1259;60314;-59
2023/10/27 10:41:42;;;;;;;7.20;4.20;;;;;;;19.67;53.25;98799.26;105759;1254;63836;-57
2023/10/27 10:44:19;;;;;;;6.90;4.10;;;;;;;19.69;53.28;98798.41;106853;1255;60549;-58
2023/10/27 10:46:46;;;;;;;8.00;4.20;;;;;;;19.71;53.55;98804.39;106085;1257;60460;-56
2023/10/27 10:49:24;;;;;;;6.30;4.00;;;;;;;19.73;53.09;98800.39;105202;1259;72697;-63
2023/10/27 10:51:56;;;;;;;6.30;3.50;;;;;;;19.72;53.02;98796.42;105746;1254;62232;-56
2023/10/27 10:54:26;;;;;;;7.70;4.30;;;;;;;19.69;53.08;98795.05;105772;1259;73591;-58
2023/10/27 10:57:02;;;;;;;5.90;3.20;;;;;;;19.71;53.13;98793.06;105691;1257;60982;-56
2023/10/27 10:59:31;;;;;;;6.10;3.70;;;;;;;19.73;52.86;98791.61;105418;1257;62278;-60
2023/10/27 11:01:59;;;;;;;6.20;3.70;;;;;;;19.77;51.70;98790.52;105690;1259;64960;-58
2023/10/27 11:04:31;;;;;;;5.30;3.20;;;;;;;19.80;51.67;98785.69;107819;1259;61510;-57
2023/10/27 11:07:09;;;;;;;6.20;3.90;;;;;;;19.87;51.67;98782.90;105335;1259;62524;-57
2023/10/27 11:09:37;;;;;;;6.60;3.90;;;;;;;19.93;51.49;98778.65;105353;1263;60441;-59
2023/10/27 11:12:05;;;;;;;6.10;3.40;;;;;;;19.97;51.54;98773.92;105199;1254;60538;-57
2023/10/27 11:14:40;;;;;;;6.40;4.10;;;;;;;20.01;51.47;98775.52;105514;1257;72887;-59
2023/10/27 11:17:11;;;;;;;6.90;3.50;;;;;;;20.04;51.69;98780.04;105150;1260;61516;-58
2023/10/27 11:19:55;;;;;;;6.60;3.10;;;;;;;20.08;51.84;98781.15;104974;1257;64465;-58
2023/10/27 11:22:24;;;;;;;5.30;3.30;;;;;;;20.11;51.56;98782.13;104754;1259;60565;-57
2023/10/27 11:24:52;;;;;;;6.40;3.60;;;;;;;20.13;51.49;98783.96;108997;1254;58159;-57
2023/10/27 11:27:24;;;;;;;7.20;3.10;;;;;;;20.16;51.29;98780.31;108904;1254;65273;-58
2023/10/27 11:29:59;;;;;;;4.80;2.60;;;;;;;20.20;51.16;98773.31;108952;1254;60564;-58
2023/10/27 11:32:26;;;;;;;5.70;3.60;;;;;;;20.28;51.03;98769.64;109066;1254;64826;-58